createdAt,value
2022-09-15T00:00:22.209Z,20.05
2022-09-15T00:03:10.139Z,20.03
2022-09-15T00:05:38.028Z,20.01
2022-09-15T00:08:05.849Z,19.99
2022-09-15T00:10:33.694Z,19.96
2022-09-15T00:13:01.395Z,19.95
2022-09-15T00:15:29.425Z,19.94
2022-09-15T00:17:57.396Z,19.93
2022-09-15T00:20:25.257Z,19.97
2022-09-15T00:22:53.129Z,20.00
2022-09-15T00:25:20.990Z,20.06
2022-09-15T00:27:48.767Z,20.10
2022-09-15T00:30:17.031Z,20.14
2022-09-15T00:32:44.819Z,20.14
2022-09-15T00:35:12.774Z,20.13
2022-09-15T00:37:40.413Z,20.12
2022-09-15T00:40:08.679Z,20.11
2022-09-15T00:42:36.775Z,20.08
2022-09-15T00:45:04.722Z,20.06
2022-09-15T00:47:38.854Z,20.03
2022-09-15T00:50:09.690Z,20.01
2022-09-15T00:52:40.478Z,20.01
2022-09-15T00:55:08.512Z,20.01
2022-09-15T00:57:42.503Z,20.01
2022-09-15T01:00:13.030Z,20.02
2022-09-15T01:02:42.571Z,20.01
2022-09-15T01:05:12.041Z,20.01
2022-09-15T01:08:00.590Z,20.01
2022-09-15T01:10:30.761Z,20.01
2022-09-15T01:13:01.339Z,20.01
2022-09-15T01:15:49.275Z,20.02
2022-09-15T01:18:20.328Z,20.03
2022-09-15T01:20:48.085Z,20.05
2022-09-15T01:23:34.482Z,20.09
2022-09-15T01:26:03.584Z,20.12
2022-09-15T01:28:50.044Z,20.14
2022-09-15T01:31:25.762Z,20.16
2022-09-15T01:34:05.561Z,20.18
2022-09-15T01:36:52.592Z,20.21
2022-09-15T01:39:24.140Z,20.25
2022-09-15T01:41:57.436Z,20.29
2022-09-15T01:44:30.933Z,20.31
2022-09-15T01:47:01.208Z,20.35
2022-09-15T01:49:38.550Z,20.37
2022-09-15T01:52:06.824Z,20.40
2022-09-15T01:54:41.429Z,20.42
2022-09-15T01:57:09.220Z,20.43
2022-09-15T01:59:37.075Z,20.45
2022-09-15T02:02:10.174Z,20.45
2022-09-15T02:04:41.614Z,20.42
2022-09-15T02:07:13.682Z,20.42
2022-09-15T02:09:49.396Z,20.44
2022-09-15T02:12:20.442Z,20.46
2022-09-15T02:14:48.303Z,20.47
2022-09-15T02:17:19.173Z,20.49
2022-09-15T02:19:50.934Z,20.48
2022-09-15T02:22:24.568Z,20.47
2022-09-15T02:24:57.934Z,20.43
2022-09-15T02:27:28.659Z,20.43
2022-09-15T02:29:59.129Z,20.43
2022-09-15T02:32:28.492Z,20.43
2022-09-15T02:34:58.694Z,20.42
2022-09-15T02:37:27.502Z,20.41
2022-09-15T02:39:58.214Z,20.43
2022-09-15T02:42:27.238Z,20.45
2022-09-15T02:44:55.195Z,20.46
2022-09-15T02:47:23.405Z,20.46
2022-09-15T02:49:51.645Z,20.45
2022-09-15T02:52:19.408Z,20.45
2022-09-15T02:54:47.476Z,20.44
2022-09-15T02:57:15.273Z,20.43
2022-09-15T03:00:03.550Z,20.42
2022-09-15T03:02:31.719Z,20.40
2022-09-15T03:04:59.727Z,20.39
2022-09-15T03:07:28.638Z,20.39
2022-09-15T03:09:56.486Z,20.40
2022-09-15T03:12:25.277Z,20.41
2022-09-15T03:14:52.999Z,20.40
2022-09-15T03:17:20.798Z,20.41
2022-09-15T03:19:48.491Z,20.42
2022-09-15T03:22:16.257Z,20.40
2022-09-15T03:24:44.025Z,20.39
2022-09-15T03:27:11.719Z,20.41
2022-09-15T03:29:39.541Z,20.42
2022-09-15T03:32:07.278Z,20.43
2022-09-15T03:34:35.145Z,20.48
2022-09-15T03:37:02.933Z,20.50
2022-09-15T03:39:30.699Z,20.53
2022-09-15T03:41:58.639Z,20.53
2022-09-15T03:44:26.406Z,20.56
2022-09-15T03:46:54.276Z,20.58
2022-09-15T03:49:22.227Z,20.57
2022-09-15T03:51:50.209Z,20.56
2022-09-15T03:54:18.341Z,20.55
2022-09-15T03:56:51.988Z,20.53
2022-09-15T03:59:20.940Z,20.51
2022-09-15T04:01:52.134Z,20.48
2022-09-15T04:04:19.985Z,20.47
2022-09-15T04:06:47.757Z,20.42
2022-09-15T04:09:15.621Z,20.39
2022-09-15T04:11:43.387Z,20.37
2022-09-15T04:14:11.087Z,20.36
2022-09-15T04:16:40.949Z,20.33
2022-09-15T04:19:08.745Z,20.30
2022-09-15T04:21:36.665Z,20.28
2022-09-15T04:24:05.981Z,20.27
2022-09-15T04:26:36.248Z,20.23
2022-09-15T04:29:05.130Z,20.19
2022-09-15T04:31:33.838Z,20.16
2022-09-15T04:34:01.612Z,20.14
2022-09-15T04:36:29.718Z,20.13
2022-09-15T04:38:58.405Z,20.11
2022-09-15T04:41:26.887Z,20.10
2022-09-15T04:43:54.968Z,20.10
2022-09-15T04:46:22.769Z,20.10
2022-09-15T04:48:50.761Z,20.08
2022-09-15T04:51:19.598Z,20.10
2022-09-15T04:53:47.751Z,20.09
2022-09-15T04:56:17.260Z,20.09
2022-09-15T04:58:46.303Z,20.07
2022-09-15T05:01:15.844Z,20.06
2022-09-15T05:03:46.586Z,20.04
2022-09-15T05:06:15.901Z,20.04
2022-09-15T05:08:46.932Z,20.05
2022-09-15T05:11:14.900Z,20.02
2022-09-15T05:13:43.278Z,20.01
2022-09-15T05:16:12.414Z,20.00
2022-09-15T05:18:41.007Z,20.00
2022-09-15T05:21:10.768Z,20.00
2022-09-15T05:23:39.147Z,19.99
2022-09-15T05:26:08.325Z,19.99
2022-09-15T05:28:36.911Z,19.98
2022-09-15T05:31:28.081Z,19.97
2022-09-15T05:33:55.939Z,19.97
2022-09-15T05:36:25.361Z,19.98
2022-09-15T05:38:54.129Z,19.99
2022-09-15T05:41:22.062Z,19.99
2022-09-15T05:43:50.849Z,20.00
2022-09-15T05:46:19.471Z,20.01
2022-09-15T05:48:47.542Z,20.00
2022-09-15T05:51:15.336Z,20.00
2022-09-15T05:53:43.239Z,19.99
2022-09-15T05:56:12.225Z,20.01
2022-09-15T05:58:41.120Z,20.00
2022-09-15T06:01:11.849Z,20.00
2022-09-15T06:03:40.842Z,19.96
2022-09-15T06:06:08.645Z,19.94
2022-09-15T06:08:38.545Z,19.93
2022-09-15T06:11:09.160Z,19.86
2022-09-15T06:13:37.241Z,19.83
2022-09-15T06:16:06.698Z,19.82
2022-09-15T06:18:36.105Z,19.81
2022-09-15T06:21:05.128Z,19.81
2022-09-15T06:23:32.841Z,19.83
2022-09-15T06:26:11.604Z,19.88
2022-09-15T06:28:40.906Z,19.93
2022-09-15T06:31:12.867Z,19.94
2022-09-15T06:33:51.848Z,19.98
2022-09-15T06:36:20.963Z,20.00
2022-09-15T06:38:49.368Z,20.04
2022-09-15T06:41:17.050Z,20.09
2022-09-15T06:43:45.584Z,20.11
2022-09-15T06:46:15.472Z,20.15
2022-09-15T06:48:47.518Z,20.20
2022-09-15T06:51:17.274Z,20.21
2022-09-15T06:53:47.010Z,20.24
2022-09-15T06:56:16.524Z,20.27
2022-09-15T06:58:45.034Z,20.26
2022-09-15T07:01:24.332Z,20.25
2022-09-15T07:03:52.314Z,20.28
2022-09-15T07:06:20.374Z,20.33
2022-09-15T07:08:48.644Z,20.37
2022-09-15T07:11:17.546Z,20.39
2022-09-15T07:13:45.605Z,20.44
2022-09-15T07:16:14.028Z,20.44
2022-09-15T07:18:43.533Z,20.44
2022-09-15T07:21:13.048Z,20.46
2022-09-15T07:23:41.454Z,20.50
2022-09-15T07:26:11.079Z,20.54
2022-09-15T07:28:40.499Z,20.56
2022-09-15T07:31:09.014Z,20.59
2022-09-15T07:33:37.242Z,20.56
2022-09-15T07:36:06.807Z,20.56
2022-09-15T07:38:35.640Z,20.55
2022-09-15T07:41:07.625Z,20.56
2022-09-15T07:43:35.707Z,20.53
2022-09-15T07:46:03.807Z,20.52
2022-09-15T07:48:32.255Z,20.52
2022-09-15T07:51:00.219Z,20.52
2022-09-15T07:53:31.025Z,20.52
2022-09-15T07:55:58.790Z,20.52
2022-09-15T07:58:27.061Z,20.56
2022-09-15T08:00:54.880Z,20.62
2022-09-15T08:03:22.801Z,20.71
2022-09-15T08:05:50.661Z,20.81
2022-09-15T08:08:18.606Z,20.91
2022-09-15T08:10:46.308Z,21.03
2022-09-15T08:13:14.020Z,21.12
2022-09-15T08:15:42.185Z,21.19
2022-09-15T08:18:09.994Z,21.22
2022-09-15T08:20:44.102Z,21.28
2022-09-15T08:23:12.074Z,21.35
2022-09-15T08:25:39.833Z,21.37
2022-09-15T08:28:08.341Z,21.35
2022-09-15T08:30:36.491Z,21.38
2022-09-15T08:33:04.457Z,21.47
2022-09-15T08:35:33.930Z,21.51
2022-09-15T08:38:01.738Z,21.54
2022-09-15T08:40:32.885Z,21.57
2022-09-15T08:43:03.705Z,21.65
2022-09-15T08:45:36.322Z,21.75
2022-09-15T08:48:08.558Z,21.87
2022-09-15T08:50:40.122Z,21.97
2022-09-15T08:53:16.983Z,22.07
2022-09-15T08:55:45.259Z,22.16
2022-09-15T08:58:14.748Z,22.22
2022-09-15T09:00:42.648Z,22.25
2022-09-15T09:03:19.265Z,22.27
2022-09-15T09:05:54.470Z,22.28
2022-09-15T09:08:41.144Z,22.27
2022-09-15T09:11:26.311Z,22.25
2022-09-15T09:13:54.355Z,22.24
2022-09-15T09:16:40.686Z,22.24
2022-09-15T09:19:14.249Z,22.27
2022-09-15T09:21:43.791Z,22.29
2022-09-15T09:24:15.071Z,22.31
2022-09-15T09:26:43.039Z,22.30
2022-09-15T09:29:27.014Z,22.31
2022-09-15T09:31:56.557Z,22.34
2022-09-15T09:34:24.287Z,22.39
2022-09-15T09:36:58.033Z,22.44
2022-09-15T09:39:27.323Z,22.50
2022-09-15T09:41:56.302Z,22.55
2022-09-15T09:44:31.923Z,22.59
2022-09-15T09:47:00.946Z,22.63
2022-09-15T09:49:34.394Z,22.69
2022-09-15T09:52:03.879Z,22.73
2022-09-15T09:54:33.141Z,22.79
2022-09-15T09:57:12.810Z,22.87
2022-09-15T09:59:45.194Z,22.94
2022-09-15T10:02:18.979Z,22.98
2022-09-15T10:04:48.047Z,22.98
2022-09-15T10:07:17.907Z,22.96
2022-09-15T10:09:52.766Z,22.97
2022-09-15T10:12:23.482Z,22.96
2022-09-15T10:14:53.152Z,22.95
2022-09-15T10:17:43.636Z,22.97
2022-09-15T10:20:24.733Z,22.98
2022-09-15T10:22:53.013Z,23.05
2022-09-15T10:25:20.678Z,23.09
2022-09-15T10:28:14.815Z,23.17
2022-09-15T10:30:58.281Z,23.24
2022-09-15T10:33:26.036Z,23.30
2022-09-15T10:35:55.451Z,23.38
2022-09-15T10:38:30.870Z,23.47
2022-09-15T10:41:18.725Z,23.55
2022-09-15T10:44:04.535Z,23.63
2022-09-15T10:46:34.584Z,23.69
2022-09-15T10:49:04.335Z,23.71
2022-09-15T10:51:58.113Z,23.75
2022-09-15T10:54:44.303Z,23.80
2022-09-15T10:57:30.918Z,23.88
2022-09-15T11:00:12.436Z,23.96
2022-09-15T11:02:51.477Z,24.04
2022-09-15T11:05:39.352Z,24.15
2022-09-15T11:08:26.180Z,24.23
2022-09-15T11:11:03.555Z,24.28
2022-09-15T11:13:40.299Z,24.29
2022-09-15T11:16:08.026Z,24.30
2022-09-15T11:18:50.776Z,24.33
2022-09-15T11:21:21.951Z,24.34
2022-09-15T11:23:54.520Z,24.34
2022-09-15T11:26:27.863Z,24.38
2022-09-15T11:29:03.540Z,24.38
2022-09-15T11:31:35.254Z,24.35
2022-09-15T11:34:09.628Z,24.28
2022-09-15T11:36:53.080Z,24.23
2022-09-15T11:39:24.165Z,24.22
2022-09-15T11:41:56.669Z,24.13
2022-09-15T11:44:39.197Z,24.08
2022-09-15T11:47:14.142Z,24.03
2022-09-15T11:49:53.793Z,23.98
2022-09-15T11:52:24.799Z,23.97
2022-09-15T11:54:52.512Z,23.93
2022-09-15T11:57:25.042Z,23.90
2022-09-15T12:00:00.808Z,23.90
2022-09-15T12:02:47.285Z,23.88
2022-09-15T12:05:19.480Z,23.90
2022-09-15T12:07:53.544Z,23.89
2022-09-15T12:10:25.498Z,23.88
2022-09-15T12:12:54.092Z,23.91
2022-09-15T12:15:27.581Z,23.95
2022-09-15T12:18:06.578Z,23.99
2022-09-15T12:20:44.963Z,24.01
2022-09-15T12:23:12.744Z,24.02
2022-09-15T12:25:41.287Z,24.04
2022-09-15T12:28:24.343Z,24.10
2022-09-15T12:31:13.009Z,24.20
2022-09-15T12:33:54.947Z,24.26
2022-09-15T12:36:33.344Z,24.30
2022-09-15T12:39:02.212Z,24.36
2022-09-15T12:41:30.728Z,24.40
2022-09-15T12:44:01.174Z,24.47
2022-09-15T12:46:29.123Z,24.52
2022-09-15T12:48:59.755Z,24.56
2022-09-15T12:51:29.368Z,24.64
2022-09-15T12:54:04.652Z,24.65
2022-09-15T12:56:34.258Z,24.63
2022-09-15T12:59:06.961Z,24.64
2022-09-15T13:01:44.213Z,24.66
2022-09-15T13:04:13.501Z,24.68
2022-09-15T13:07:01.157Z,24.74
2022-09-15T13:09:29.462Z,24.82
2022-09-15T13:11:57.321Z,24.85
2022-09-15T13:14:38.066Z,24.83
2022-09-15T13:17:12.912Z,24.79
2022-09-15T13:19:46.806Z,24.75
2022-09-15T13:22:35.697Z,24.67
2022-09-15T13:25:10.940Z,24.59
2022-09-15T13:27:42.418Z,24.53
2022-09-15T13:30:11.505Z,24.49
2022-09-15T13:32:45.224Z,24.45
2022-09-15T13:35:21.730Z,24.42
2022-09-15T13:38:16.823Z,24.42
2022-09-15T13:41:08.247Z,24.41
2022-09-15T13:43:40.190Z,24.40
2022-09-15T13:46:17.437Z,24.39
2022-09-15T13:48:50.154Z,24.36
2022-09-15T13:51:26.828Z,24.30
2022-09-15T13:54:06.498Z,24.25
2022-09-15T13:56:39.648Z,24.23
2022-09-15T13:59:15.474Z,24.22
2022-09-15T14:01:45.423Z,24.23
2022-09-15T14:04:17.427Z,24.25
2022-09-15T14:06:55.990Z,24.26
2022-09-15T14:09:28.195Z,24.28
2022-09-15T14:11:58.001Z,24.30
2022-09-15T14:14:38.062Z,24.32
2022-09-15T14:17:06.508Z,24.32
2022-09-15T14:19:36.071Z,24.32
2022-09-15T14:22:22.746Z,24.31
2022-09-15T14:24:51.131Z,24.29
2022-09-15T14:27:29.343Z,24.29
2022-09-15T14:30:01.294Z,24.27
2022-09-15T14:32:31.593Z,24.27
2022-09-15T14:35:00.635Z,24.25
2022-09-15T14:37:29.517Z,24.25
2022-09-15T14:40:01.560Z,24.26
2022-09-15T14:42:33.278Z,24.31
2022-09-15T14:47:59.741Z,24.30
2022-09-15T14:50:32.507Z,24.29
2022-09-15T14:53:04.069Z,24.30
2022-09-15T14:55:36.232Z,24.30
2022-09-15T14:58:12.849Z,24.30
2022-09-15T15:00:44.761Z,24.29
2022-09-15T15:03:27.718Z,24.25
2022-09-15T15:06:02.758Z,24.21
2022-09-15T15:08:35.616Z,24.20
2022-09-15T15:11:05.563Z,24.20
2022-09-15T15:13:33.735Z,24.18
2022-09-15T15:16:05.067Z,24.15
2022-09-15T15:18:35.974Z,24.11
2022-09-15T15:21:04.195Z,24.06
2022-09-15T15:23:32.859Z,24.01
2022-09-15T15:26:24.913Z,23.97
2022-09-15T15:28:52.998Z,23.95
2022-09-15T15:31:21.983Z,23.95
2022-09-15T15:33:53.436Z,23.95
2022-09-15T15:36:22.592Z,23.92
2022-09-15T15:38:54.414Z,23.90
2022-09-15T15:41:26.638Z,23.88
2022-09-15T15:43:57.816Z,23.84
2022-09-15T15:46:44.521Z,23.80
2022-09-15T15:49:15.383Z,23.75
2022-09-15T15:51:44.191Z,23.70
2022-09-15T15:54:12.189Z,23.66
2022-09-15T15:56:40.121Z,23.61
2022-09-15T15:59:13.048Z,23.56
2022-09-15T16:01:41.726Z,23.48
2022-09-15T16:04:12.250Z,23.40
2022-09-15T16:06:40.687Z,23.34
2022-09-15T16:09:08.605Z,23.27
2022-09-15T16:11:36.430Z,23.22
2022-09-15T16:14:04.317Z,23.17
2022-09-15T16:16:32.673Z,23.12
2022-09-15T16:19:00.585Z,23.07
2022-09-15T16:21:37.143Z,23.01
2022-09-15T16:24:06.047Z,22.93
2022-09-15T16:26:36.060Z,22.79
2022-09-15T16:29:04.129Z,22.64
2022-09-15T16:31:32.783Z,22.48
2022-09-15T16:34:00.666Z,22.33
2022-09-15T16:36:30.092Z,22.20
2022-09-15T16:38:57.881Z,22.07
2022-09-15T16:41:25.966Z,21.94
2022-09-15T16:43:55.965Z,21.87
2022-09-15T16:46:23.814Z,21.80
2022-09-15T16:48:51.828Z,21.74
2022-09-15T16:51:27.997Z,21.67
2022-09-15T16:53:58.051Z,21.62
2022-09-15T16:56:27.089Z,21.60
2022-09-15T16:59:00.202Z,21.60
2022-09-15T17:01:29.030Z,21.58
2022-09-15T17:03:57.564Z,21.56
2022-09-15T17:06:25.417Z,21.57
2022-09-15T17:08:53.277Z,21.56
2022-09-15T17:11:23.950Z,21.53
2022-09-15T17:13:51.818Z,21.50
2022-09-15T17:16:19.723Z,21.42
2022-09-15T17:18:48.081Z,21.37
2022-09-15T17:21:17.170Z,21.34
2022-09-15T17:23:46.217Z,21.30
2022-09-15T17:26:18.378Z,21.28
2022-09-15T17:28:46.606Z,21.26
2022-09-15T17:31:14.507Z,21.23
2022-09-15T17:33:43.051Z,21.24
2022-09-15T17:36:11.541Z,21.22
2022-09-15T17:38:41.248Z,21.22
2022-09-15T17:41:19.184Z,21.20
2022-09-15T17:43:47.834Z,21.16
2022-09-15T17:46:15.616Z,21.17
2022-09-15T17:48:43.665Z,21.18
2022-09-15T17:51:14.951Z,21.20
2022-09-15T17:53:42.845Z,21.17
2022-09-15T17:56:10.970Z,21.17
2022-09-15T17:58:42.606Z,21.15
2022-09-15T18:01:15.189Z,21.15
2022-09-15T18:03:44.399Z,21.13
2022-09-15T18:06:12.661Z,21.10
2022-09-15T18:08:40.627Z,21.07
2022-09-15T18:11:08.888Z,21.06
2022-09-15T18:13:37.924Z,21.04
2022-09-15T18:16:06.890Z,21.00
2022-09-15T18:18:35.011Z,20.95
2022-09-15T18:21:07.250Z,20.91
2022-09-15T18:23:35.095Z,20.88
2022-09-15T18:26:02.921Z,20.80
2022-09-15T18:28:30.693Z,20.75
2022-09-15T18:30:59.030Z,20.71
2022-09-15T18:33:26.763Z,20.69
2022-09-15T18:35:56.272Z,20.65
2022-09-15T18:38:24.603Z,20.61
2022-09-15T18:40:54.174Z,20.60
2022-09-15T18:43:23.632Z,20.58
2022-09-15T18:45:53.329Z,20.59
2022-09-15T18:48:21.535Z,20.59
2022-09-15T18:50:49.397Z,20.57
2022-09-15T18:53:17.268Z,20.58
2022-09-15T18:55:45.491Z,20.59
2022-09-15T18:58:13.680Z,20.58
2022-09-15T19:00:41.679Z,20.56
2022-09-15T19:03:09.643Z,20.55
2022-09-15T19:05:37.508Z,20.54
2022-09-15T19:08:05.657Z,20.54
2022-09-15T19:10:33.648Z,20.52
2022-09-15T19:13:03.301Z,20.49
2022-09-15T19:15:42.785Z,20.43
2022-09-15T19:18:12.650Z,20.41
2022-09-15T19:20:41.896Z,20.36
2022-09-15T19:23:09.712Z,20.32
2022-09-15T19:25:37.571Z,20.29
2022-09-15T19:28:05.431Z,20.26
2022-09-15T19:30:33.221Z,20.23
2022-09-15T19:33:05.103Z,20.21
2022-09-15T19:35:33.829Z,20.19
2022-09-15T19:38:01.707Z,20.15
2022-09-15T19:40:30.591Z,20.13
2022-09-15T19:42:58.863Z,20.12
2022-09-15T19:45:27.137Z,20.13
2022-09-15T19:47:56.241Z,20.15
2022-09-15T19:50:24.003Z,20.15
2022-09-15T19:52:54.245Z,20.17
2022-09-15T19:55:24.236Z,20.21
2022-09-15T19:57:51.898Z,20.24
2022-09-15T20:00:20.074Z,20.24
2022-09-15T20:02:48.717Z,20.24
2022-09-15T20:05:16.413Z,20.23
2022-09-15T20:07:44.998Z,20.25
2022-09-15T20:10:13.068Z,20.27
2022-09-15T20:12:40.900Z,20.28
2022-09-15T20:15:09.114Z,20.27
2022-09-15T20:17:41.819Z,20.27
2022-09-15T20:20:11.671Z,20.27
2022-09-15T20:22:39.785Z,20.26
2022-09-15T20:25:07.725Z,20.24
2022-09-15T20:27:35.590Z,20.23
2022-09-15T20:30:03.678Z,20.18
2022-09-15T20:32:33.366Z,20.17
2022-09-15T20:35:01.357Z,20.16
2022-09-15T20:37:29.136Z,20.17
2022-09-15T20:39:57.070Z,20.17
2022-09-15T20:42:25.776Z,20.16
2022-09-15T20:44:54.109Z,20.16
2022-09-15T20:47:21.837Z,20.15
2022-09-15T20:49:49.785Z,20.14
2022-09-15T20:52:17.590Z,20.13
2022-09-15T20:54:45.214Z,20.14
2022-09-15T20:57:13.075Z,20.14
2022-09-15T20:59:40.773Z,20.14
2022-09-15T21:02:09.460Z,20.14
2022-09-15T21:04:37.699Z,20.14
2022-09-15T21:07:05.542Z,20.13
2022-09-15T21:09:33.745Z,20.11
2022-09-15T21:12:01.608Z,20.12
2022-09-15T21:14:29.672Z,20.11
2022-09-15T21:16:57.403Z,20.09
2022-09-15T21:19:25.143Z,20.08
2022-09-15T21:21:54.982Z,20.08
2022-09-15T21:24:22.742Z,20.10
2022-09-15T21:27:10.083Z,20.10
2022-09-15T21:29:37.861Z,20.11
2022-09-15T21:32:05.741Z,20.08
2022-09-15T21:34:33.700Z,20.08
2022-09-15T21:37:01.568Z,20.07
2022-09-15T21:39:29.434Z,20.06
2022-09-15T21:41:57.358Z,20.03
2022-09-15T21:44:25.159Z,20.01
2022-09-15T21:46:52.870Z,19.98
2022-09-15T21:49:20.790Z,19.96
2022-09-15T21:51:48.869Z,19.94
2022-09-15T21:54:16.856Z,19.92
2022-09-15T21:56:45.426Z,19.93
2022-09-15T21:59:13.174Z,19.88
2022-09-15T22:01:41.806Z,19.89
2022-09-15T22:04:10.623Z,19.91
2022-09-15T22:06:40.739Z,19.90
2022-09-15T22:09:14.270Z,19.90
2022-09-15T22:11:42.645Z,19.87
2022-09-15T22:14:12.032Z,19.86
2022-09-15T22:16:40.808Z,19.85
2022-09-15T22:19:10.339Z,19.84
2022-09-15T22:21:41.790Z,19.81
2022-09-15T22:24:11.723Z,19.79
2022-09-15T22:26:40.766Z,19.76
2022-09-15T22:29:08.566Z,19.72
2022-09-15T22:31:36.464Z,19.67
2022-09-15T22:34:04.262Z,19.62
2022-09-15T22:36:32.469Z,19.59
2022-09-15T22:39:05.253Z,19.57
2022-09-15T22:41:36.394Z,19.52
2022-09-15T22:44:04.981Z,19.48
2022-09-15T22:46:32.946Z,19.46
2022-09-15T22:49:00.945Z,19.44
2022-09-15T22:51:29.363Z,19.45
2022-09-15T22:53:57.603Z,19.42
2022-09-15T22:56:26.615Z,19.39
2022-09-15T22:58:56.268Z,19.39
2022-09-15T23:01:28.156Z,19.37
2022-09-15T23:04:00.611Z,19.36
2022-09-15T23:06:30.720Z,19.35
2022-09-15T23:08:59.794Z,19.36
2022-09-15T23:11:29.022Z,19.33
2022-09-15T23:13:57.306Z,19.31
2022-09-15T23:16:25.834Z,19.31
2022-09-15T23:18:54.968Z,19.30
2022-09-15T23:21:22.705Z,19.30
2022-09-15T23:23:53.319Z,19.27
2022-09-15T23:26:22.564Z,19.28
2022-09-15T23:28:50.324Z,19.25
2022-09-15T23:31:18.500Z,19.21
2022-09-15T23:33:46.849Z,19.17
2022-09-15T23:36:16.686Z,19.11
2022-09-15T23:38:45.469Z,19.09
2022-09-15T23:41:14.160Z,19.08
2022-09-15T23:43:41.968Z,19.10
2022-09-15T23:46:10.354Z,19.10
2022-09-15T23:48:38.492Z,19.07
2022-09-15T23:51:06.239Z,19.05
2022-09-15T23:53:34.413Z,19.02
2022-09-15T23:56:02.396Z,19.03
2022-09-15T23:58:30.350Z,19.03
